createdAt,value
2023-05-04T00:01:02.232Z,101392.22
2023-05-04T00:03:30.059Z,101393.28
2023-05-04T00:05:58.056Z,101383.84
2023-05-04T00:08:25.874Z,101392.25
2023-05-04T00:10:55.829Z,101392.16
2023-05-04T00:13:23.925Z,101393.72
2023-05-04T00:15:51.823Z,101384.22
2023-05-04T00:18:19.489Z,101385.06
2023-05-04T00:20:47.388Z,101383.31
2023-05-04T00:23:15.171Z,101384.25
2023-05-04T00:25:43.347Z,101392.69
2023-05-04T00:28:11.050Z,101386.59
2023-05-04T00:30:38.962Z,101389.09
2023-05-04T00:33:06.856Z,101384.81
2023-05-04T00:35:34.811Z,101378.09
2023-05-04T00:38:05.035Z,101381.50
2023-05-04T00:40:33.322Z,101367.63
2023-05-04T00:43:01.106Z,101388.22
2023-05-04T00:45:29.088Z,101382.13
2023-05-04T00:47:56.830Z,101387.91
2023-05-04T00:50:26.301Z,101396.31
2023-05-04T00:52:58.426Z,101388.78
2023-05-04T00:55:26.577Z,101388.72
2023-05-04T00:57:54.404Z,101390.41
2023-05-04T01:00:23.036Z,101379.19
2023-05-04T01:02:51.229Z,101386.00
2023-05-04T01:05:19.504Z,101391.22
2023-05-04T01:08:13.418Z,101392.91
2023-05-04T01:10:53.548Z,101387.66
2023-05-04T01:13:23.097Z,101386.19
2023-05-04T01:15:52.229Z,101387.81
2023-05-04T01:18:19.888Z,101395.38
2023-05-04T01:20:47.940Z,101394.47
2023-05-04T01:23:16.616Z,101386.25
2023-05-04T01:25:57.862Z,101388.28
2023-05-04T01:29:04.456Z,101384.88
2023-05-04T01:31:35.395Z,101388.00
2023-05-04T01:34:03.520Z,101382.94
2023-05-04T01:36:31.821Z,101377.50
2023-05-04T01:39:00.002Z,101389.59
2023-05-04T01:41:27.997Z,101389.38
2023-05-04T01:43:55.996Z,101387.25
2023-05-04T01:46:24.264Z,101383.78
2023-05-04T01:48:51.999Z,101387.84
2023-05-04T01:51:20.194Z,101385.19
2023-05-04T01:53:47.947Z,101386.75
2023-05-04T01:56:17.688Z,101384.94
2023-05-04T01:58:45.857Z,101381.38
2023-05-04T02:01:14.590Z,101378.78
2023-05-04T02:03:42.534Z,101378.75
2023-05-04T02:06:11.369Z,101371.97
2023-05-04T02:08:39.355Z,101379.13
2023-05-04T02:11:08.565Z,101379.88
2023-05-04T02:13:36.661Z,101376.22
2023-05-04T02:16:04.961Z,101380.31
2023-05-04T02:18:32.679Z,101384.50
2023-05-04T02:21:00.852Z,101379.16
2023-05-04T02:23:28.593Z,101375.88
2023-05-04T02:25:56.613Z,101376.09
2023-05-04T02:28:24.782Z,101377.97
2023-05-04T02:30:52.667Z,101379.19
2023-05-04T02:33:20.423Z,101381.59
2023-05-04T02:35:49.189Z,101378.91
2023-05-04T02:38:16.820Z,101382.53
2023-05-04T02:40:45.007Z,101380.69
2023-05-04T02:43:12.705Z,101378.13
2023-05-04T02:45:40.795Z,101385.09
2023-05-04T02:48:09.032Z,101378.94
2023-05-04T02:50:37.631Z,101379.66
2023-05-04T02:53:05.301Z,101372.59
2023-05-04T02:55:33.346Z,101379.38
2023-05-04T02:58:01.284Z,101381.72
2023-05-04T03:00:29.259Z,101377.41
2023-05-04T03:02:57.034Z,101376.53
2023-05-04T03:05:25.031Z,101379.28
2023-05-04T03:07:53.572Z,101375.66
2023-05-04T03:10:21.994Z,101379.94
2023-05-04T03:12:50.500Z,101383.28
2023-05-04T03:15:18.731Z,101382.53
2023-05-04T03:17:46.619Z,101379.72
2023-05-04T03:20:14.805Z,101391.13
2023-05-04T03:22:43.245Z,101383.56
2023-05-04T03:25:11.502Z,101384.78
2023-05-04T03:27:39.176Z,101387.44
2023-05-04T03:30:08.208Z,101385.72
2023-05-04T03:32:37.425Z,101393.59
2023-05-04T03:35:05.877Z,101393.84
2023-05-04T03:37:33.660Z,101386.38
2023-05-04T03:40:02.044Z,101385.69
2023-05-04T03:42:29.790Z,101387.00
2023-05-04T03:44:57.921Z,101386.13
2023-05-04T03:47:25.684Z,101390.31
2023-05-04T03:49:54.093Z,101392.09
2023-05-04T03:52:21.855Z,101384.34
2023-05-04T03:54:50.221Z,101394.63
2023-05-04T03:57:18.176Z,101392.16
2023-05-04T03:59:46.603Z,101394.06
2023-05-04T04:02:14.853Z,101394.22
2023-05-04T04:04:44.197Z,101398.72
2023-05-04T04:07:12.464Z,101405.13
2023-05-04T04:09:40.586Z,101405.47
2023-05-04T04:12:08.282Z,101402.91
2023-05-04T04:14:36.230Z,101407.56
2023-05-04T04:17:03.955Z,101412.88
2023-05-04T04:19:32.240Z,101409.56
2023-05-04T04:22:00.050Z,101413.16
2023-05-04T04:24:28.167Z,101415.38
2023-05-04T04:26:56.097Z,101411.69
2023-05-04T04:29:24.180Z,101422.22
2023-05-04T04:31:51.818Z,101418.66
2023-05-04T04:34:19.914Z,101413.53
2023-05-04T04:36:47.592Z,101414.16
2023-05-04T04:39:16.658Z,101414.75
2023-05-04T04:41:44.401Z,101420.63
2023-05-04T04:44:12.500Z,101420.91
2023-05-04T04:46:40.416Z,101412.03
2023-05-04T04:49:08.427Z,101416.63
2023-05-04T04:51:36.653Z,101418.22
2023-05-04T04:54:04.679Z,101404.28
2023-05-04T04:56:32.418Z,101408.25
2023-05-04T04:59:00.370Z,101405.56
2023-05-04T05:01:28.206Z,101417.00
2023-05-04T05:03:56.150Z,101416.56
2023-05-04T05:06:24.037Z,101409.94
2023-05-04T05:08:52.886Z,101407.13
2023-05-04T05:11:20.813Z,101408.06
2023-05-04T05:13:48.781Z,101407.22
2023-05-04T05:16:16.458Z,101404.47
2023-05-04T05:18:44.444Z,101407.81
2023-05-04T05:21:12.189Z,101405.97
2023-05-04T05:23:40.231Z,101408.28
2023-05-04T05:26:07.874Z,101413.22
2023-05-04T05:28:35.813Z,101411.59
2023-05-04T05:31:03.913Z,101410.31
2023-05-04T05:33:31.937Z,101409.31
2023-05-04T05:35:59.649Z,101414.59
2023-05-04T05:38:27.618Z,101414.53
2023-05-04T05:40:55.632Z,101419.91
2023-05-04T05:43:23.534Z,101424.03
2023-05-04T05:45:51.194Z,101421.25
2023-05-04T05:48:19.196Z,101415.16
2023-05-04T05:50:46.820Z,101416.09
2023-05-04T05:53:14.900Z,101412.50
2023-05-04T05:55:42.544Z,101414.56
2023-05-04T05:58:10.544Z,101409.91
2023-05-04T06:00:38.291Z,101415.78
2023-05-04T06:03:06.410Z,101408.25
2023-05-04T06:05:37.212Z,101408.44
2023-05-04T06:08:05.284Z,101407.38
2023-05-04T06:10:33.605Z,101402.94
2023-05-04T06:13:01.831Z,101406.84
2023-05-04T06:15:29.594Z,101408.75
2023-05-04T06:17:57.500Z,101409.69
2023-05-04T06:20:25.224Z,101400.19
2023-05-04T06:22:53.181Z,101404.59
2023-05-04T06:25:21.042Z,101409.72
2023-05-04T06:27:48.975Z,101412.16
2023-05-04T06:30:16.903Z,101416.50
2023-05-04T06:32:44.824Z,101411.75
2023-05-04T06:35:13.774Z,101410.38
2023-05-04T06:37:41.758Z,101403.13
2023-05-04T06:40:10.227Z,101411.00
2023-05-04T06:42:38.348Z,101404.84
2023-05-04T06:45:06.645Z,101405.25
2023-05-04T06:47:37.931Z,101405.22
2023-05-04T06:50:09.739Z,101400.47
2023-05-04T06:52:44.267Z,101407.03
2023-05-04T06:55:12.065Z,101404.84
2023-05-04T06:57:40.132Z,101410.22
2023-05-04T07:00:08.961Z,101396.97
2023-05-04T07:02:37.003Z,101409.75
2023-05-04T07:05:04.978Z,101407.88
2023-05-04T07:07:32.975Z,101408.56
2023-05-04T07:10:00.645Z,101404.59
2023-05-04T07:12:29.121Z,101401.00
2023-05-04T07:14:56.816Z,101405.59
2023-05-04T07:17:25.559Z,101407.34
2023-05-04T07:19:53.512Z,101401.91
2023-05-04T07:22:21.700Z,101400.38
2023-05-04T07:24:49.488Z,101403.28
2023-05-04T07:27:17.393Z,101395.59
2023-05-04T07:29:45.073Z,101400.06
2023-05-04T07:32:12.990Z,101395.78
2023-05-04T07:34:45.765Z,101395.59
2023-05-04T07:37:15.905Z,101396.72
2023-05-04T07:39:43.692Z,101393.53
2023-05-04T07:42:11.786Z,101397.19
2023-05-04T07:44:39.776Z,101396.00
2023-05-04T07:47:08.141Z,101405.97
2023-05-04T07:49:35.944Z,101401.69
2023-05-04T07:52:04.609Z,101392.13
2023-05-04T07:54:32.458Z,101392.22
2023-05-04T07:57:03.698Z,101398.41
2023-05-04T07:59:31.699Z,101393.25
2023-05-04T08:01:59.829Z,101390.50
2023-05-04T08:04:27.613Z,101378.88
2023-05-04T08:06:55.511Z,101390.47
2023-05-04T08:09:23.436Z,101385.91
2023-05-04T08:11:51.344Z,101381.84
2023-05-04T08:14:19.054Z,101368.81
2023-05-04T08:16:47.774Z,101380.66
2023-05-04T08:19:15.446Z,101379.88
2023-05-04T08:21:43.385Z,101367.03
2023-05-04T08:24:11.707Z,101373.72
2023-05-04T08:26:39.784Z,101373.88
2023-05-04T08:29:10.585Z,101371.72
2023-05-04T08:31:40.513Z,101379.28
2023-05-04T08:34:08.299Z,101369.00
2023-05-04T08:36:36.353Z,101373.56
2023-05-04T08:39:04.042Z,101381.03
2023-05-04T08:41:32.370Z,101378.06
2023-05-04T08:44:00.400Z,101379.19
2023-05-04T08:46:31.615Z,101377.97
2023-05-04T08:48:59.335Z,101375.41
2023-05-04T08:51:27.673Z,101376.25
2023-05-04T08:53:56.439Z,101376.19
2023-05-04T08:56:25.492Z,101373.41
2023-05-04T08:58:53.842Z,101382.59
2023-05-04T09:01:22.781Z,101374.94
2023-05-04T09:03:52.426Z,101377.72
2023-05-04T09:06:21.094Z,101374.75
2023-05-04T09:08:48.817Z,101373.31
2023-05-04T09:11:17.137Z,101370.03
2023-05-04T09:13:44.809Z,101368.88
2023-05-04T09:16:14.981Z,101365.13
2023-05-04T09:18:46.323Z,101368.22
2023-05-04T09:21:14.403Z,101363.44
2023-05-04T09:23:49.011Z,101358.47
2023-05-04T09:26:30.676Z,101363.16
2023-05-04T09:29:11.951Z,101359.72
2023-05-04T09:31:58.632Z,101353.69
2023-05-04T09:34:26.444Z,101353.28
2023-05-04T09:37:01.973Z,101349.22
2023-05-04T09:39:30.586Z,101343.50
2023-05-04T09:41:58.809Z,101340.13
2023-05-04T09:44:29.771Z,101341.03
2023-05-04T09:46:59.046Z,101335.13
2023-05-04T09:49:37.048Z,101326.66
2023-05-04T09:52:07.065Z,101336.88
2023-05-04T09:54:36.378Z,101334.47
2023-05-04T09:57:17.709Z,101337.16
2023-05-04T09:59:45.656Z,101332.47
2023-05-04T10:02:22.822Z,101332.53
2023-05-04T10:04:52.774Z,101326.09
2023-05-04T10:07:21.234Z,101322.47
2023-05-04T10:09:51.282Z,101323.56
2023-05-04T10:12:19.445Z,101317.50
2023-05-04T10:14:47.743Z,101322.00
2023-05-04T10:17:40.892Z,101317.13
2023-05-04T10:20:51.069Z,101315.22
2023-05-04T10:23:31.015Z,101310.13
2023-05-04T10:26:16.927Z,101304.63
2023-05-04T10:29:35.947Z,101302.16
2023-05-04T10:32:04.281Z,101285.94
2023-05-04T10:34:34.611Z,101296.75
2023-05-04T10:37:04.595Z,101290.31
2023-05-04T10:39:35.320Z,101283.91
2023-05-04T10:42:07.954Z,101287.47
2023-05-04T10:44:49.068Z,101285.84
2023-05-04T10:47:26.848Z,101281.38
2023-05-04T10:50:04.832Z,101292.59
2023-05-04T10:52:50.523Z,101282.94
2023-05-04T10:55:19.987Z,101277.16
2023-05-04T10:57:53.223Z,101276.25
2023-05-04T11:00:22.028Z,101268.88
2023-05-04T11:02:50.422Z,101273.22
2023-05-04T11:05:20.395Z,101268.72
2023-05-04T11:07:53.287Z,101262.31
2023-05-04T11:10:23.526Z,101256.41
2023-05-04T11:12:52.076Z,101269.22
2023-05-04T11:15:21.318Z,101261.69
2023-05-04T11:17:52.127Z,101262.38
2023-05-04T11:20:25.496Z,101249.56
2023-05-04T11:22:54.248Z,101249.31
2023-05-04T11:25:29.548Z,101251.47
2023-05-04T11:27:58.699Z,101252.56
2023-05-04T11:30:36.487Z,101246.72
2023-05-04T11:33:12.641Z,101245.19
2023-05-04T11:35:42.412Z,101234.75
2023-05-04T11:38:10.878Z,101232.22
2023-05-04T11:40:41.317Z,101234.66
2023-05-04T11:43:11.725Z,101234.31
2023-05-04T11:45:41.528Z,101230.56
2023-05-04T11:48:10.273Z,101218.78
2023-05-04T11:50:38.697Z,101216.78
2023-05-04T11:53:09.447Z,101214.72
2023-05-04T11:55:38.226Z,101214.00
2023-05-04T11:58:08.161Z,101211.13
2023-05-04T12:00:40.511Z,101207.78
2023-05-04T12:03:15.767Z,101212.81
2023-05-04T12:05:52.460Z,101205.03
2023-05-04T12:08:47.426Z,101205.84
2023-05-04T12:11:25.924Z,101205.41
2023-05-04T12:14:03.356Z,101210.06
2023-05-04T12:16:31.643Z,101201.19
2023-05-04T12:19:15.021Z,101203.75
2023-05-04T12:21:53.769Z,101200.56
2023-05-04T12:24:25.078Z,101188.56
2023-05-04T12:26:53.293Z,101182.34
2023-05-04T12:29:21.359Z,101179.03
2023-05-04T12:31:49.441Z,101180.53
2023-05-04T12:34:17.200Z,101179.41
2023-05-04T12:36:45.213Z,101183.72
2023-05-04T12:39:12.874Z,101173.94
2023-05-04T12:41:41.067Z,101173.41
2023-05-04T12:44:11.467Z,101180.97
2023-05-04T12:46:39.419Z,101179.63
2023-05-04T12:49:07.384Z,101180.84
2023-05-04T12:51:35.649Z,101170.69
2023-05-04T12:54:03.497Z,101171.41
2023-05-04T12:56:32.181Z,101171.59
2023-05-04T12:58:59.887Z,101165.84
2023-05-04T13:01:27.860Z,101166.53
2023-05-04T13:03:55.550Z,101158.69
2023-05-04T13:06:23.583Z,101150.38
2023-05-04T13:08:51.314Z,101156.13
2023-05-04T13:11:20.169Z,101147.66
2023-05-04T13:13:47.927Z,101151.41
2023-05-04T13:16:17.187Z,101155.44
2023-05-04T13:18:45.030Z,101152.06
2023-05-04T13:21:13.779Z,101152.44
2023-05-04T13:23:41.518Z,101158.69
2023-05-04T13:26:09.563Z,101158.59
2023-05-04T13:28:39.383Z,101145.00
2023-05-04T13:31:08.771Z,101142.44
2023-05-04T13:33:39.880Z,101154.84
2023-05-04T13:36:08.211Z,101143.06
2023-05-04T13:38:36.730Z,101130.50
2023-05-04T13:41:04.716Z,101125.47
2023-05-04T13:43:32.411Z,101126.38
2023-05-04T13:46:03.865Z,101122.19
2023-05-04T13:48:33.793Z,101118.91
2023-05-04T13:51:04.087Z,101118.06
2023-05-04T13:53:31.896Z,101110.81
2023-05-04T13:55:59.897Z,101112.38
2023-05-04T13:58:27.658Z,101104.47
2023-05-04T14:00:56.459Z,101104.00
2023-05-04T14:03:24.237Z,101097.16
2023-05-04T14:05:52.728Z,101100.91
2023-05-04T14:08:20.440Z,101095.84
2023-05-04T14:10:48.393Z,101090.69
2023-05-04T14:13:17.025Z,101082.94
2023-05-04T14:15:47.262Z,101081.13
2023-05-04T14:18:15.484Z,101076.78
2023-05-04T14:20:43.623Z,101076.69
2023-05-04T14:23:11.250Z,101079.78
2023-05-04T14:25:42.042Z,101081.47
2023-05-04T14:28:09.822Z,101079.41
2023-05-04T14:30:37.789Z,101079.41
2023-05-04T14:33:05.581Z,101079.78
2023-05-04T14:35:34.529Z,101081.28
2023-05-04T14:38:02.140Z,101076.16
2023-05-04T14:40:30.191Z,101077.94
2023-05-04T14:42:59.737Z,101066.38
2023-05-04T14:45:27.789Z,101075.59
2023-05-04T14:47:55.584Z,101069.19
2023-05-04T14:50:23.619Z,101064.63
2023-05-04T14:52:51.488Z,101065.97
2023-05-04T14:55:19.413Z,101061.81
2023-05-04T14:57:47.207Z,101062.19
2023-05-04T15:00:16.172Z,101061.94
2023-05-04T15:02:44.137Z,101056.69
2023-05-04T15:05:12.822Z,101060.09
2023-05-04T15:07:40.596Z,101062.88
2023-05-04T15:10:10.616Z,101045.66
2023-05-04T15:12:39.603Z,101058.97
2023-05-04T15:15:08.163Z,101057.81
2023-05-04T15:17:35.921Z,101065.41
2023-05-04T15:20:05.023Z,101060.19
2023-05-04T15:22:33.131Z,101059.38
2023-05-04T15:25:01.894Z,101053.25
2023-05-04T15:27:29.728Z,101054.91
2023-05-04T15:29:57.987Z,101047.97
2023-05-04T15:32:25.856Z,101039.38
2023-05-04T15:35:04.437Z,101046.78
2023-05-04T15:37:33.348Z,101042.25
2023-05-04T15:40:02.668Z,101040.22
2023-05-04T15:42:30.773Z,101030.78
2023-05-04T15:44:58.740Z,101027.25
2023-05-04T15:47:26.988Z,101028.88
2023-05-04T15:49:55.214Z,101028.69
2023-05-04T15:52:24.012Z,101026.88
2023-05-04T15:54:51.926Z,101028.09
2023-05-04T15:57:19.567Z,101026.69
2023-05-04T15:59:49.619Z,101018.41
2023-05-04T16:02:17.422Z,101022.09
2023-05-04T16:04:45.707Z,101014.97
2023-05-04T16:07:13.457Z,101019.94
2023-05-04T16:09:41.499Z,101022.09
2023-05-04T16:12:10.130Z,101015.69
2023-05-04T16:14:38.095Z,101012.25
2023-05-04T16:17:05.861Z,101018.31
2023-05-04T16:19:33.788Z,101016.53
2023-05-04T16:22:01.532Z,101012.53
2023-05-04T16:24:29.469Z,101017.59
2023-05-04T16:26:57.097Z,101016.41
2023-05-04T16:29:25.159Z,101020.25
2023-05-04T16:31:52.792Z,101021.69
2023-05-04T16:34:20.800Z,101011.84
2023-05-04T16:36:48.506Z,101015.81
2023-05-04T16:39:18.758Z,101016.25
2023-05-04T16:41:48.364Z,101009.69
2023-05-04T16:44:16.541Z,101006.19
2023-05-04T16:46:44.281Z,101016.06
2023-05-04T16:49:14.606Z,101013.53
2023-05-04T16:51:43.404Z,101021.25
2023-05-04T16:54:11.561Z,101007.84
2023-05-04T16:56:39.224Z,101010.97
2023-05-04T16:59:07.356Z,101008.84
2023-05-04T17:01:35.515Z,101013.66
2023-05-04T17:04:03.536Z,101006.66
2023-05-04T17:06:31.404Z,100998.03
2023-05-04T17:08:59.317Z,101004.66
2023-05-04T17:11:27.067Z,101009.22
2023-05-04T17:13:56.095Z,101008.41
2023-05-04T17:16:23.961Z,101008.13
2023-05-04T17:18:51.894Z,101009.25
2023-05-04T17:21:19.889Z,101007.16
2023-05-04T17:23:47.793Z,101011.81
2023-05-04T17:26:15.830Z,101001.41
2023-05-04T17:28:44.406Z,101009.13
2023-05-04T17:31:12.611Z,101010.13
2023-05-04T17:33:40.710Z,101009.38
2023-05-04T17:36:11.851Z,101015.22
2023-05-04T17:38:41.278Z,101003.66
2023-05-04T17:41:10.010Z,101009.19
2023-05-04T17:43:38.907Z,101012.47
2023-05-04T17:46:06.723Z,101012.47
2023-05-04T17:48:36.424Z,101007.41
2023-05-04T17:51:08.521Z,101017.13
2023-05-04T17:53:36.748Z,101014.88
2023-05-04T17:56:04.611Z,101024.56
2023-05-04T17:58:32.553Z,101012.97
2023-05-04T18:01:00.164Z,101022.66
2023-05-04T18:03:28.369Z,101027.38
2023-05-04T18:05:56.599Z,101030.53
2023-05-04T18:08:24.618Z,101024.91
2023-05-04T18:10:52.270Z,101025.28
2023-05-04T18:13:20.432Z,101021.09
2023-05-04T18:15:48.139Z,101036.81
2023-05-04T18:18:16.386Z,101039.47
2023-05-04T18:20:43.994Z,101050.34
2023-05-04T18:23:11.962Z,101048.25
2023-05-04T18:25:39.645Z,101053.16
2023-05-04T18:28:08.396Z,101048.91
2023-05-04T18:30:36.359Z,101054.25
2023-05-04T18:33:04.736Z,101059.63
2023-05-04T18:35:32.545Z,101067.91
2023-05-04T18:38:00.669Z,101069.22
2023-05-04T18:40:28.566Z,101064.28
2023-05-04T18:42:56.624Z,101068.78
2023-05-04T18:45:25.219Z,101075.47
2023-05-04T18:47:53.321Z,101073.06
2023-05-04T18:50:20.964Z,101079.41
2023-05-04T18:52:48.974Z,101075.16
2023-05-04T18:55:16.627Z,101083.06
2023-05-04T18:57:44.672Z,101092.00
2023-05-04T19:00:14.008Z,101083.78
2023-05-04T19:02:42.013Z,101086.34
2023-05-04T19:05:12.211Z,101084.94
2023-05-04T19:07:41.788Z,101088.84
2023-05-04T19:10:10.085Z,101092.34
2023-05-04T19:12:38.039Z,101089.44
2023-05-04T19:15:06.628Z,101086.00
2023-05-04T19:17:34.957Z,101080.22
2023-05-04T19:20:03.041Z,101078.78
2023-05-04T19:22:31.172Z,101081.19
2023-05-04T19:24:58.850Z,101083.00
2023-05-04T19:27:26.903Z,101086.69
2023-05-04T19:29:56.189Z,101088.56
2023-05-04T19:32:25.195Z,101085.00
2023-05-04T19:34:53.476Z,101091.53
2023-05-04T19:37:22.020Z,101088.16
2023-05-04T19:39:50.689Z,101090.19
2023-05-04T19:42:18.683Z,101088.47
2023-05-04T19:44:46.434Z,101086.00
2023-05-04T19:47:14.419Z,101091.47
2023-05-04T19:49:42.007Z,101097.78
2023-05-04T19:52:10.063Z,101103.22
2023-05-04T19:54:38.420Z,101106.03
2023-05-04T19:57:06.996Z,101107.88
2023-05-04T19:59:35.755Z,101095.66
2023-05-04T20:02:03.868Z,101102.41
2023-05-04T20:04:31.733Z,101100.88
2023-05-04T20:06:59.697Z,101095.88
2023-05-04T20:09:29.014Z,101095.19
2023-05-04T20:11:57.004Z,101097.91
2023-05-04T20:14:24.690Z,101090.13
2023-05-04T20:16:52.738Z,101094.59
2023-05-04T20:19:20.480Z,101092.75
2023-05-04T20:21:48.823Z,101097.91
2023-05-04T20:24:16.931Z,101093.50
2023-05-04T20:26:45.079Z,101089.13
2023-05-04T20:29:12.733Z,101086.56
2023-05-04T20:31:41.441Z,101096.31
2023-05-04T20:34:09.927Z,101085.28
2023-05-04T20:36:37.808Z,101088.91
2023-05-04T20:39:07.071Z,101090.78
2023-05-04T20:41:35.113Z,101088.16
2023-05-04T20:44:02.829Z,101086.38
2023-05-04T20:46:32.040Z,101091.69
2023-05-04T20:49:02.809Z,101091.84
2023-05-04T20:51:31.582Z,101090.16
2023-05-04T20:53:59.215Z,101091.13
2023-05-04T20:56:27.341Z,101088.56
2023-05-04T20:58:55.303Z,101090.31
2023-05-04T21:01:23.507Z,101083.44
2023-05-04T21:03:51.382Z,101092.94
2023-05-04T21:06:19.365Z,101091.19
2023-05-04T21:08:47.139Z,101088.47
2023-05-04T21:11:15.074Z,101093.84
2023-05-04T21:13:42.674Z,101087.91
2023-05-04T21:16:11.395Z,101088.75
2023-05-04T21:18:39.313Z,101091.47
2023-05-04T21:21:07.277Z,101087.19
2023-05-04T21:23:34.977Z,101083.66
2023-05-04T21:26:04.066Z,101090.59
2023-05-04T21:28:32.232Z,101084.69
2023-05-04T21:31:00.314Z,101085.66
2023-05-04T21:33:28.204Z,101083.81
2023-05-04T21:35:56.215Z,101087.44
2023-05-04T21:38:23.934Z,101080.53
2023-05-04T21:40:51.852Z,101080.59
2023-05-04T21:43:19.535Z,101085.84
2023-05-04T21:45:47.501Z,101082.31
2023-05-04T21:48:15.404Z,101082.34
2023-05-04T21:50:43.321Z,101076.31
2023-05-04T21:53:11.291Z,101082.38
2023-05-04T21:55:39.218Z,101076.28
2023-05-04T21:58:07.542Z,101075.53
2023-05-04T22:00:35.540Z,101078.16
2023-05-04T22:03:03.356Z,101075.59
2023-05-04T22:05:31.261Z,101073.88
2023-05-04T22:08:00.972Z,101078.19
2023-05-04T22:10:29.139Z,101073.84
2023-05-04T22:12:56.808Z,101075.50
2023-05-04T22:15:31.683Z,101076.34
2023-05-04T22:18:05.888Z,101079.88
2023-05-04T22:20:34.685Z,101079.00
2023-05-04T22:23:02.474Z,101081.53
2023-05-04T22:25:31.293Z,101076.31
2023-05-04T22:27:59.749Z,101071.13
2023-05-04T22:30:28.262Z,101080.59
2023-05-04T22:32:56.404Z,101071.91
2023-05-04T22:35:24.632Z,101075.34
2023-05-04T22:37:52.346Z,101069.34
2023-05-04T22:40:20.418Z,101071.13
2023-05-04T22:42:48.256Z,101058.19
2023-05-04T22:45:18.348Z,101066.88
2023-05-04T22:47:49.034Z,101059.06
2023-05-04T22:50:17.522Z,101049.53
2023-05-04T22:52:45.301Z,101049.56
2023-05-04T22:55:13.290Z,101049.56
2023-05-04T22:57:40.893Z,101053.00
2023-05-04T23:00:10.023Z,101052.97
2023-05-04T23:02:38.358Z,101049.44
2023-05-04T23:05:07.047Z,101049.41
2023-05-04T23:07:35.007Z,101059.69
2023-05-04T23:10:03.560Z,101047.53
2023-05-04T23:12:31.626Z,101059.69
2023-05-04T23:14:59.657Z,101058.03
2023-05-04T23:17:27.327Z,101052.91
2023-05-04T23:19:55.606Z,101056.38
2023-05-04T23:22:23.219Z,101046.91
2023-05-04T23:24:51.191Z,101038.28
2023-05-04T23:27:18.919Z,101037.38
2023-05-04T23:29:46.895Z,101039.06
2023-05-04T23:32:14.572Z,101040.78
2023-05-04T23:34:42.870Z,101042.34
2023-05-04T23:37:10.706Z,101040.47
2023-05-04T23:39:38.565Z,101039.59
2023-05-04T23:42:06.379Z,101035.28
2023-05-04T23:44:34.278Z,101030.88
2023-05-04T23:47:01.903Z,101036.09
2023-05-04T23:49:29.914Z,101033.47
2023-05-04T23:51:57.520Z,101038.66
2023-05-04T23:54:25.396Z,101039.53
2023-05-04T23:56:53.063Z,101044.75
2023-05-04T23:59:21.128Z,101035.19
